createdAt,value
2017-12-03T00:00:23.313Z,20.77
2017-12-03T00:02:52.559Z,20.47
2017-12-03T00:05:21.353Z,20.23
2017-12-03T00:07:49.476Z,19.70
2017-12-03T00:10:18.359Z,18.23
2017-12-03T00:12:46.440Z,19.27
2017-12-03T00:15:15.282Z,18.53
2017-12-03T00:17:44.905Z,20.00
2017-12-03T00:20:12.973Z,19.83
2017-12-03T00:22:41.123Z,19.03
2017-12-03T00:25:09.938Z,17.87
2017-12-03T00:27:38.049Z,18.17
2017-12-03T00:30:06.809Z,16.80
2017-12-03T00:32:34.911Z,18.07
2017-12-03T00:35:04.861Z,19.30
2017-12-03T00:37:32.937Z,17.50
2017-12-03T00:40:01.016Z,19.10
2017-12-03T00:42:29.094Z,17.10
2017-12-03T00:44:57.176Z,17.17
2017-12-03T00:47:25.233Z,16.20
2017-12-03T00:49:53.305Z,17.60
2017-12-03T00:52:22.357Z,18.00
2017-12-03T00:54:51.174Z,18.50
2017-12-03T00:57:19.345Z,16.83
2017-12-03T00:59:48.844Z,15.83
2017-12-03T01:02:17.703Z,15.93
2017-12-03T01:04:45.721Z,17.60
2017-12-03T01:07:15.873Z,17.03
2017-12-03T01:09:43.956Z,16.47
2017-12-03T01:12:12.343Z,15.47
2017-12-03T01:14:40.397Z,15.40
2017-12-03T01:17:09.330Z,15.23
2017-12-03T01:19:39.118Z,15.53
2017-12-03T01:22:07.196Z,14.90
2017-12-03T01:24:36.041Z,15.60
2017-12-03T01:27:04.105Z,15.03
2017-12-03T01:29:32.284Z,15.00
2017-12-03T01:32:01.262Z,15.07
2017-12-03T01:34:29.350Z,14.60
2017-12-03T01:36:58.197Z,15.57
2017-12-03T01:39:26.918Z,14.77
2017-12-03T01:41:55.700Z,14.37
2017-12-03T01:44:24.249Z,15.00
2017-12-03T01:46:53.482Z,15.03
2017-12-03T01:49:21.857Z,14.43
2017-12-03T01:51:50.673Z,13.93
2017-12-03T01:54:19.697Z,15.20
2017-12-03T01:56:48.549Z,14.50
2017-12-03T01:59:16.685Z,15.57
2017-12-03T02:01:52.375Z,14.87
2017-12-03T02:04:27.171Z,15.60
2017-12-03T02:07:01.069Z,13.13
2017-12-03T02:09:29.989Z,13.27
2017-12-03T02:11:58.036Z,15.27
2017-12-03T02:14:27.057Z,13.13
2017-12-03T02:16:55.926Z,13.90
2017-12-03T02:19:24.721Z,14.27
2017-12-03T02:21:52.796Z,14.67
2017-12-03T02:24:21.609Z,13.53
2017-12-03T02:26:50.149Z,14.00
2017-12-03T02:29:18.241Z,14.77
2017-12-03T02:31:47.107Z,13.47
2017-12-03T02:34:15.943Z,15.57
2017-12-03T02:36:43.993Z,15.17
2017-12-03T02:39:13.313Z,14.10
2017-12-03T02:41:41.378Z,13.00
2017-12-03T02:44:09.455Z,15.20
2017-12-03T02:46:38.373Z,13.23
2017-12-03T02:49:07.011Z,15.13
2017-12-03T02:51:35.238Z,14.40
2017-12-03T02:54:03.417Z,14.03
2017-12-03T02:56:31.518Z,14.40
2017-12-03T02:59:00.386Z,14.63
2017-12-03T03:01:29.214Z,14.23
2017-12-03T03:04:05.892Z,14.80
2017-12-03T03:06:48.656Z,13.23
2017-12-03T03:09:23.387Z,13.60
2017-12-03T03:11:51.915Z,15.20
2017-12-03T03:14:19.997Z,13.50
2017-12-03T03:16:48.198Z,14.53
2017-12-03T03:19:16.613Z,13.33
2017-12-03T03:21:44.821Z,15.20
2017-12-03T03:24:13.538Z,15.30
2017-12-03T11:30:13.799Z,6.97
2017-12-03T11:32:43.450Z,9.13
2017-12-03T11:35:11.562Z,6.97
2017-12-03T11:37:40.798Z,6.80
2017-12-03T11:40:09.067Z,7.10
2017-12-03T11:42:37.915Z,6.83
2017-12-03T11:45:06.160Z,6.73
2017-12-03T11:47:34.279Z,7.30
2017-12-03T11:50:02.314Z,7.10
2017-12-03T11:52:30.373Z,6.37
2017-12-03T11:54:58.424Z,6.70
2017-12-03T11:57:26.485Z,6.80
2017-12-03T11:59:55.374Z,6.90
2017-12-03T12:02:23.449Z,7.10
2017-12-03T12:04:53.244Z,8.00
2017-12-03T12:07:21.258Z,7.40
2017-12-03T12:09:49.359Z,7.40
2017-12-03T12:12:18.181Z,6.40
2017-12-03T12:14:47.220Z,6.50
2017-12-03T12:17:15.363Z,7.30
2017-12-03T12:19:45.200Z,7.90
2017-12-03T12:22:14.032Z,7.57
2017-12-03T12:24:42.871Z,6.70
2017-12-03T12:27:10.897Z,6.63
2017-12-03T12:29:39.664Z,7.07
2017-12-03T12:32:07.777Z,7.53
2017-12-03T12:34:36.552Z,6.50
2017-12-03T12:37:04.736Z,7.40
2017-12-03T12:39:32.736Z,6.53
2017-12-03T12:42:00.756Z,7.60
2017-12-03T12:44:31.025Z,10.00
2017-12-03T12:47:00.246Z,7.20
2017-12-03T12:49:28.856Z,6.03
2017-12-03T12:51:57.145Z,7.37
2017-12-03T12:54:25.504Z,6.20
2017-12-03T12:56:53.740Z,6.40
2017-12-03T12:59:22.053Z,7.80
2017-12-03T13:01:50.364Z,6.20
2017-12-03T13:04:18.681Z,6.23
2017-12-03T13:06:47.710Z,6.83
2017-12-03T13:09:15.950Z,7.33
2017-12-03T13:11:45.854Z,7.20
2017-12-03T13:14:14.176Z,7.20
2017-12-03T13:16:42.421Z,6.83
2017-12-03T13:19:10.717Z,6.67
2017-12-03T13:21:38.968Z,6.57
2017-12-03T13:24:07.225Z,7.60
2017-12-03T13:26:35.530Z,7.20
2017-12-03T13:29:03.808Z,8.10
2017-12-03T13:31:32.078Z,6.13
2017-12-03T13:34:00.329Z,6.10
2017-12-03T13:36:28.563Z,8.27
2017-12-03T13:38:56.864Z,7.63
2017-12-03T13:41:25.338Z,6.77
2017-12-03T13:43:54.562Z,6.60
2017-12-03T13:46:23.625Z,6.70
2017-12-03T13:48:51.946Z,6.40
2017-12-03T13:51:20.342Z,6.97
2017-12-03T13:53:48.623Z,6.73
2017-12-03T13:56:16.903Z,7.00
2017-12-03T13:58:45.141Z,8.47
2017-12-03T14:01:13.416Z,7.10
2017-12-03T14:03:41.681Z,7.60
2017-12-03T14:06:09.982Z,6.97
2017-12-03T14:08:38.356Z,7.50
2017-12-03T14:11:10.737Z,6.13
2017-12-03T14:13:39.000Z,7.10
2017-12-03T14:16:07.377Z,6.87
2017-12-03T14:18:37.201Z,7.40
2017-12-03T14:21:05.465Z,7.53
2017-12-03T14:23:34.001Z,7.10
2017-12-03T14:26:02.287Z,7.10
2017-12-03T14:28:30.750Z,7.10
2017-12-03T14:30:59.225Z,6.03
2017-12-03T14:33:27.483Z,7.90
2017-12-03T14:35:55.820Z,7.70
2017-12-03T14:38:24.263Z,7.43
2017-12-03T14:40:52.652Z,6.07
2017-12-03T14:43:20.885Z,5.77
2017-12-03T14:45:49.221Z,5.93
2017-12-03T14:48:17.797Z,5.70
2017-12-03T14:50:47.182Z,6.27
2017-12-03T14:53:15.409Z,6.40
2017-12-03T14:55:43.966Z,5.83
2017-12-03T14:58:13.120Z,5.70
2017-12-03T15:00:41.514Z,5.50
2017-12-03T15:03:09.790Z,5.33
2017-12-03T15:05:38.059Z,6.17
2017-12-03T15:08:06.341Z,6.10
2017-12-03T15:10:34.605Z,6.00
2017-12-03T15:13:03.721Z,5.90
2017-12-03T15:15:32.003Z,5.73
2017-12-03T15:18:00.274Z,4.73
2017-12-03T15:20:28.596Z,5.20
2017-12-03T15:22:56.860Z,5.37
2017-12-03T15:25:25.273Z,5.40
2017-12-03T15:27:54.352Z,5.03
2017-12-03T15:30:22.659Z,5.43
2017-12-03T15:32:50.954Z,4.53
2017-12-03T15:35:20.048Z,5.73
2017-12-03T15:37:48.352Z,4.23
2017-12-03T15:40:16.639Z,5.20
2017-12-03T15:42:45.900Z,4.70
2017-12-03T15:45:14.225Z,4.90
2017-12-03T15:47:42.547Z,5.40
2017-12-03T15:50:11.606Z,4.60
2017-12-03T15:52:39.868Z,5.37
2017-12-03T15:55:08.157Z,4.40
2017-12-03T15:57:36.418Z,5.10
2017-12-03T16:00:04.690Z,5.30
2017-12-03T16:02:32.989Z,5.50
2017-12-03T16:05:01.261Z,5.67
2017-12-03T16:07:29.545Z,5.30
2017-12-03T16:09:57.920Z,5.40
2017-12-03T16:12:26.426Z,6.90
2017-12-03T16:14:54.699Z,5.50
2017-12-03T16:17:22.980Z,5.90
2017-12-03T16:19:51.254Z,5.47
2017-12-03T16:22:21.053Z,9.65
2017-12-03T16:24:50.292Z,6.83
2017-12-03T16:27:19.584Z,7.83
2017-12-03T16:29:48.625Z,7.07
2017-12-03T16:32:16.905Z,7.17
2017-12-03T16:34:45.164Z,7.13
2017-12-03T16:37:14.282Z,8.07
2017-12-03T16:39:43.477Z,8.07
2017-12-03T16:42:11.809Z,8.93
2017-12-03T16:44:40.905Z,7.77
2017-12-03T16:47:09.925Z,8.00
2017-12-03T16:49:38.317Z,8.93
2017-12-03T16:52:07.445Z,8.50
2017-12-03T16:54:35.805Z,7.93
2017-12-03T16:57:04.121Z,8.80
2017-12-03T16:59:32.418Z,10.20
2017-12-03T17:02:00.707Z,9.23
2017-12-03T17:04:29.976Z,8.40
2017-12-03T17:07:02.314Z,9.63
2017-12-03T17:09:30.582Z,8.70
2017-12-03T17:11:59.816Z,9.80
2017-12-03T17:14:29.099Z,9.40
2017-12-03T17:16:57.477Z,10.00
2017-12-03T17:19:25.766Z,11.00
2017-12-03T17:21:54.058Z,10.50
2017-12-03T17:24:22.401Z,10.80
2017-12-03T17:26:51.831Z,10.57
2017-12-03T17:29:20.076Z,10.73
2017-12-03T17:31:48.378Z,8.60
2017-12-03T17:34:16.677Z,10.17
2017-12-03T17:36:44.996Z,9.90
2017-12-03T17:39:13.457Z,9.30
2017-12-03T17:41:41.769Z,11.00
2017-12-03T17:44:10.072Z,11.77
2017-12-03T17:46:38.669Z,10.47
2017-12-03T17:49:07.972Z,10.17
2017-12-03T17:51:36.236Z,11.60
2017-12-03T17:54:04.513Z,10.83
2017-12-03T17:56:33.574Z,13.10
2017-12-03T17:59:02.654Z,11.20
2017-12-03T18:01:30.942Z,11.97
2017-12-03T18:04:01.099Z,13.77
2017-12-03T18:09:03.851Z,16.37
2017-12-03T18:11:33.177Z,15.10
2017-12-03T18:14:01.450Z,15.10
2017-12-03T18:16:29.701Z,14.53
2017-12-03T18:18:58.034Z,12.83
2017-12-03T18:21:27.163Z,15.87
2017-12-03T18:23:58.269Z,14.97
2017-12-03T18:26:26.721Z,15.17
2017-12-03T18:28:55.032Z,14.60
2017-12-03T18:31:23.421Z,13.30
2017-12-03T18:33:52.482Z,16.33
2017-12-03T18:36:20.759Z,15.03
2017-12-03T18:38:49.099Z,16.53
2017-12-03T18:41:17.707Z,14.33
2017-12-03T18:43:46.975Z,13.63
2017-12-03T18:46:15.305Z,12.87
2017-12-03T18:48:43.618Z,15.60
2017-12-03T18:51:12.854Z,16.87
2017-12-03T18:53:41.201Z,14.17
2017-12-03T18:56:10.502Z,15.50
2017-12-03T18:58:38.806Z,14.70
2017-12-03T19:01:07.598Z,14.13
2017-12-03T19:03:36.822Z,19.80
2017-12-03T19:06:07.316Z,14.60
2017-12-03T19:08:36.262Z,13.77
2017-12-03T19:11:06.472Z,13.00
2017-12-03T19:13:34.889Z,14.97
2017-12-03T19:16:05.183Z,15.90
2017-12-03T19:18:34.237Z,15.50
2017-12-03T19:21:02.669Z,16.67
2017-12-03T19:23:31.180Z,13.13
2017-12-03T19:26:00.828Z,13.87
2017-12-03T19:28:30.711Z,15.50
2017-12-03T19:31:00.039Z,16.50
2017-12-03T19:33:29.010Z,14.00
2017-12-03T19:35:57.415Z,16.20
2017-12-03T19:38:26.556Z,17.97
2017-12-03T19:40:54.948Z,17.70
2017-12-03T19:43:23.336Z,16.93
2017-12-03T19:45:52.993Z,19.57
2017-12-03T19:48:21.286Z,20.73
2017-12-03T19:50:49.660Z,17.00
2017-12-03T19:53:18.850Z,20.60
2017-12-03T19:55:48.091Z,19.13
2017-12-03T19:58:18.271Z,15.67
2017-12-03T20:00:46.633Z,19.00
2017-12-03T20:03:16.042Z,18.70
2017-12-03T20:05:44.493Z,16.97
2017-12-03T20:08:12.915Z,17.80
2017-12-03T20:10:41.386Z,14.97
2017-12-03T20:13:09.740Z,20.07
2017-12-03T20:15:38.208Z,17.40
2017-12-03T20:18:06.565Z,17.40
2017-12-03T20:20:34.988Z,17.23
2017-12-03T20:23:04.204Z,17.50
2017-12-03T20:25:32.556Z,17.60
2017-12-03T20:28:01.482Z,18.40
2017-12-03T20:30:29.933Z,16.67
2017-12-03T20:32:58.312Z,16.67
2017-12-03T20:35:26.726Z,17.17
2017-12-03T20:37:55.908Z,22.20
2017-12-03T20:40:24.269Z,22.63
2017-12-03T20:42:52.768Z,15.27
2017-12-03T20:45:21.078Z,17.80
2017-12-03T20:47:49.540Z,17.50
2017-12-03T20:50:17.914Z,17.37
2017-12-03T20:52:47.190Z,18.57
2017-12-03T20:55:16.625Z,17.57
2017-12-03T20:57:44.976Z,17.47
2017-12-03T21:00:15.006Z,21.03
2017-12-03T21:02:43.715Z,19.63
2017-12-03T21:05:12.905Z,16.57
2017-12-03T21:07:41.283Z,16.70
2017-12-03T21:10:09.691Z,17.23
2017-12-03T21:12:37.993Z,19.30
2017-12-03T21:15:07.175Z,17.47
2017-12-03T21:17:35.682Z,20.53
2017-12-03T21:20:04.129Z,18.97
2017-12-03T21:22:32.468Z,17.57
2017-12-03T21:25:00.755Z,17.80
2017-12-03T21:27:29.990Z,17.70
2017-12-03T21:29:58.279Z,15.80
2017-12-03T21:32:26.634Z,15.97
2017-12-03T21:34:54.948Z,16.57
2017-12-03T21:37:23.272Z,14.53
2017-12-03T21:39:52.758Z,17.03
2017-12-03T21:42:22.388Z,17.03
2017-12-03T21:44:50.686Z,16.23
2017-12-03T21:47:19.018Z,15.23
2017-12-03T21:49:48.118Z,13.17
2017-12-03T21:52:17.249Z,15.40
2017-12-03T21:54:45.583Z,15.17
2017-12-03T21:57:13.879Z,15.10
2017-12-03T21:59:42.990Z,14.60
2017-12-03T22:02:11.432Z,14.27
2017-12-03T22:04:39.804Z,13.93
2017-12-03T22:07:09.040Z,13.37
2017-12-03T22:09:37.336Z,13.70
2017-12-03T22:12:05.640Z,14.87
2017-12-03T22:14:35.068Z,14.40
2017-12-03T22:17:04.260Z,14.30
2017-12-03T22:19:33.463Z,15.40
2017-12-03T22:22:03.402Z,15.50
2017-12-03T22:24:32.762Z,15.80
2017-12-03T22:27:02.013Z,17.20
2017-12-03T22:29:30.347Z,16.60
2017-12-03T22:31:58.645Z,15.00
2017-12-03T22:34:27.756Z,17.17
2017-12-03T22:36:56.091Z,15.73
2017-12-03T22:39:24.457Z,20.03
2017-12-03T22:41:53.997Z,19.00
2017-12-03T22:44:22.288Z,18.70
2017-12-03T22:46:50.670Z,18.07
2017-12-03T22:49:19.020Z,17.90
2017-12-03T22:51:48.327Z,16.53
2017-12-03T22:54:17.446Z,16.60
2017-12-03T22:56:45.757Z,16.60
2017-12-03T22:59:14.280Z,15.57
2017-12-03T23:01:44.071Z,15.20
2017-12-03T23:04:12.571Z,15.17
2017-12-03T23:06:41.689Z,15.10
2017-12-03T23:09:09.983Z,16.87
2017-12-03T23:11:38.550Z,19.33
2017-12-03T23:14:06.841Z,17.07
2017-12-03T23:16:35.902Z,16.87
2017-12-03T23:19:04.255Z,18.90
2017-12-03T23:21:33.440Z,16.43
2017-12-03T23:24:01.795Z,19.33
2017-12-03T23:26:30.110Z,16.70
2017-12-03T23:28:59.384Z,17.93
2017-12-03T23:31:27.692Z,17.07
2017-12-03T23:33:56.007Z,16.50
2017-12-03T23:36:24.477Z,17.23
2017-12-03T23:38:52.790Z,16.20
2017-12-03T23:41:22.196Z,15.87
2017-12-03T23:43:50.581Z,17.80
2017-12-03T23:46:18.892Z,17.40
2017-12-03T23:48:47.386Z,15.90
2017-12-03T23:51:15.671Z,17.60
2017-12-03T23:53:44.758Z,17.47
2017-12-03T23:56:13.028Z,20.87
2017-12-03T23:58:41.603Z,16.27
